Roscoe, Pennsylvania
Current Conditions -  °F | °C
As of 10:04 PM on Wednesday 26 Nov 2014 (Local Time) from KAGC Reporting Station
Haze Haze  
Wind Chill: 32°   Ceiling: 500
Heat Index: 32°   Visibility: 1.5mi
Dew Point: 29°   Wind: 3mph
Humidity: 88%   Direction: 330°NNW
Pressure: 29.99"   Gusts: NA
Location:  40.08°N, 79.87°W
Report Text: KAGC 270304Z 33003KT 1 1/2SM BR OVC005 00/M02 A2999 RMK AO2 T00001017
Loading
Personal Weather Stations






























Interactive Weather Map New forecast layout! Learn more

10-Day Weather Forecast

Advertisements
Track Severe Weather on mobile